Terminal Aerodrome Forecast
Issued by NWS

Home | Current Version | Previous Version | Text Only | Print | Product List | Glossary On
Versions: 1 2 3 4 5 6 7 8 9 10 11 12 13 14
980
FTUS44 KBMX 181128
TAFMGM
TAF
KMGM 181128Z 1812/1912 12004KT P6SM SCT025
     FM181500 18012G18KT P6SM BKN035
     FM190400 25014G22KT 4SM -RA BR OVC025
     FM190700 31015G25KT P6SM OVC025=

USA.gov is the U.S. government's official web portal to all federal, state and local government web resources and services.